Time;durP1;ratioP1;P1;durP2;ratioP2;P2;SDS_P1;SDS_P2;PMS_P1;PMS_P2;Temp;Humidity;BMP_temperature;BMP_pressure;BME280_temperature;BME280_humidity;BME280_pressure;Samples;Min_cycle;Max_cycle;Signal;HPM_P1;HPM_P2
2023/05/28 00:04:50;;;;;;;11.80;4.60;;;;;;;;;;10477173;28;20029;-59
2023/05/28 00:09:50;;;;;;;6.35;4.88;;;;;;;;;;10480744;28;20021;-59
2023/05/28 00:14:52;;;;;;;7.55;4.70;;;;;;;;;;10478281;28;20525;-59
2023/05/28 00:19:52;;;;;;;7.15;4.20;;;;;;;;;;10484695;28;20029;-59
2023/05/28 00:24:53;;;;;;;6.15;4.63;;;;;;;;;;10465257;28;20029;-60
2023/05/28 00:29:53;;;;;;;8.35;5.22;;;;;;;;;;10483104;28;20020;-59
2023/05/28 00:34:55;;;;;;;5.07;4.55;;;;;;;;;;10495024;28;20051;-60
2023/05/28 00:39:56;;;;;;;6.40;4.72;;;;;;;;;;10494387;28;20288;-59
2023/05/28 00:44:57;;;;;;;6.18;5.13;;;;;;;;;;10477326;28;20653;-59
2023/05/28 00:50:00;;;;;;;6.57;4.88;;;;;;;;;;10490232;28;20040;-59
2023/05/28 00:55:01;;;;;;;5.70;4.80;;;;;;;;;;10490030;28;20503;-59
2023/05/28 01:00:05;;;;;;;5.80;4.70;;;;;;;;;;10457109;28;20033;-59
2023/05/28 01:05:06;;;;;;;5.82;4.32;;;;;;;;;;10486859;28;20028;-59
2023/05/28 01:10:07;;;;;;;5.28;4.63;;;;;;;;;;10475757;28;20399;-59
2023/05/28 01:15:09;;;;;;;6.85;4.57;;;;;;;;;;10484624;28;20024;-59
2023/05/28 01:20:11;;;;;;;5.97;4.25;;;;;;;;;;10440722;28;20392;-59
2023/05/28 01:25:12;;;;;;;7.80;4.85;;;;;;;;;;10489242;28;20391;-59
2023/05/28 01:30:13;;;;;;;6.35;4.68;;;;;;;;;;10470963;28;20037;-60
2023/05/28 01:35:14;;;;;;;5.32;4.22;;;;;;;;;;10465306;28;20032;-59
2023/05/28 01:40:17;;;;;;;6.30;4.10;;;;;;;;;;10471008;28;20044;-59
2023/05/28 01:45:18;;;;;;;6.05;4.53;;;;;;;;;;10436981;28;20041;-59
2023/05/28 01:50:19;;;;;;;6.15;4.65;;;;;;;;;;10433339;28;20025;-60
2023/05/28 01:55:19;;;;;;;6.63;4.20;;;;;;;;;;10437614;28;20029;-60
2023/05/28 02:00:22;;;;;;;6.93;4.70;;;;;;;;;;10441368;28;20539;-60
2023/05/28 02:05:22;;;;;;;5.78;3.97;;;;;;;;;;10438165;28;20025;-59
2023/05/28 02:10:23;;;;;;;9.00;4.50;;;;;;;;;;10444266;28;20457;-59
2023/05/28 02:15:24;;;;;;;7.43;4.25;;;;;;;;;;10446195;28;20013;-59
2023/05/28 02:20:24;;;;;;;5.60;4.72;;;;;;;;;;10444263;28;20059;-59
2023/05/28 02:25:25;;;;;;;4.82;3.80;;;;;;;;;;10453879;28;20534;-59
2023/05/28 02:30:26;;;;;;;4.80;3.92;;;;;;;;;;10421804;28;20026;-59
2023/05/28 02:35:26;;;;;;;4.75;4.00;;;;;;;;;;10444001;28;20025;-59
2023/05/28 02:40:27;;;;;;;5.18;4.15;;;;;;;;;;10447837;28;20094;-59
2023/05/28 02:45:27;;;;;;;4.32;3.75;;;;;;;;;;10470297;28;20091;-59
2023/05/28 02:50:28;;;;;;;4.15;3.75;;;;;;;;;;10483957;28;20028;-59
2023/05/28 02:55:29;;;;;;;5.07;4.13;;;;;;;;;;10485890;28;20059;-59
2023/05/28 03:00:31;;;;;;;5.30;3.90;;;;;;;;;;10479212;28;21051;-59
2023/05/28 03:05:32;;;;;;;5.38;3.72;;;;;;;;;;10483950;28;20048;-59
2023/05/28 03:10:33;;;;;;;6.00;3.90;;;;;;;;;;10489392;28;20025;-60
2023/05/28 03:15:33;;;;;;;4.82;3.97;;;;;;;;;;10459238;28;20028;-59
2023/05/28 03:20:34;;;;;;;7.20;3.90;;;;;;;;;;10477427;28;20176;-59
2023/05/28 03:25:34;;;;;;;3.70;3.35;;;;;;;;;;10486924;28;20036;-59
2023/05/28 03:30:35;;;;;;;5.05;3.72;;;;;;;;;;10489714;28;20028;-59
2023/05/28 03:35:35;;;;;;;5.82;4.07;;;;;;;;;;10483396;28;20414;-59
2023/05/28 03:40:36;;;;;;;4.38;3.97;;;;;;;;;;10483469;28;20384;-59
2023/05/28 03:45:37;;;;;;;4.45;4.00;;;;;;;;;;10487146;28;20493;-59
2023/05/28 03:50:37;;;;;;;4.25;3.72;;;;;;;;;;10488842;28;20472;-59
2023/05/28 03:55:38;;;;;;;5.15;4.00;;;;;;;;;;10486084;28;20086;-59
2023/05/28 04:00:39;;;;;;;5.05;3.83;;;;;;;;;;10481022;28;20295;-59
2023/05/28 04:05:40;;;;;;;4.00;3.60;;;;;;;;;;10478370;28;20033;-59
2023/05/28 04:10:40;;;;;;;5.32;3.83;;;;;;;;;;10489891;28;20028;-63
2023/05/28 04:15:41;;;;;;;4.18;3.28;;;;;;;;;;10483774;28;20028;-62
2023/05/28 04:20:42;;;;;;;5.15;3.53;;;;;;;;;;10485543;28;20040;-63
2023/05/28 04:25:43;;;;;;;6.40;3.90;;;;;;;;;;10494098;28;20036;-59
2023/05/28 04:30:43;;;;;;;4.55;3.60;;;;;;;;;;10493107;28;20043;-62
2023/05/28 04:35:44;;;;;;;6.68;3.35;;;;;;;;;;10482066;28;20372;-62
2023/05/28 04:40:44;;;;;;;3.70;3.28;;;;;;;;;;10488801;28;20036;-60
2023/05/28 04:45:45;;;;;;;4.20;3.50;;;;;;;;;;10488918;28;20068;-59
2023/05/28 04:50:45;;;;;;;4.82;3.95;;;;;;;;;;10487242;28;20040;-59
2023/05/28 04:55:46;;;;;;;3.92;3.53;;;;;;;;;;10478644;28;20090;-60
2023/05/28 05:00:47;;;;;;;5.15;3.70;;;;;;;;;;10480299;28;20040;-59
2023/05/28 05:05:48;;;;;;;3.97;3.60;;;;;;;;;;10489255;28;20119;-59
2023/05/28 05:10:49;;;;;;;4.20;3.47;;;;;;;;;;10478196;28;20032;-59
2023/05/28 05:15:50;;;;;;;3.60;3.30;;;;;;;;;;10489267;28;20035;-59
2023/05/28 05:20:50;;;;;;;4.90;3.00;;;;;;;;;;10485875;28;20040;-61
2023/05/28 05:25:51;;;;;;;4.25;3.50;;;;;;;;;;10478381;28;20036;-59
2023/05/28 05:30:52;;;;;;;4.10;3.63;;;;;;;;;;10478566;28;20033;-60
2023/05/28 05:35:52;;;;;;;5.30;3.58;;;;;;;;;;10481386;28;20055;-61
2023/05/28 05:40:53;;;;;;;4.35;3.55;;;;;;;;;;10485477;28;20041;-60
2023/05/28 05:45:53;;;;;;;3.47;3.03;;;;;;;;;;10488291;28;20032;-59
2023/05/28 05:50:55;;;;;;;3.42;3.13;;;;;;;;;;10483893;28;20472;-59
2023/05/28 05:55:55;;;;;;;3.45;3.05;;;;;;;;;;10487864;28;20037;-59
2023/05/28 06:00:56;;;;;;;3.30;3.00;;;;;;;;;;10480708;28;20029;-60
2023/05/28 06:05:57;;;;;;;3.63;3.33;;;;;;;;;;10490561;28;20039;-59
2023/05/28 06:10:57;;;;;;;4.32;3.58;;;;;;;;;;10484326;28;20025;-59
2023/05/28 06:15:59;;;;;;;3.15;2.85;;;;;;;;;;10484373;28;20028;-59
2023/05/28 06:21:00;;;;;;;3.65;3.15;;;;;;;;;;10474029;28;20036;-59
2023/05/28 06:26:01;;;;;;;4.18;3.35;;;;;;;;;;10488479;28;20027;-59
2023/05/28 06:31:02;;;;;;;3.42;3.13;;;;;;;;;;10482184;28;20037;-59
2023/05/28 06:36:03;;;;;;;6.60;2.97;;;;;;;;;;10463765;28;20044;-59
2023/05/28 06:41:04;;;;;;;3.33;3.03;;;;;;;;;;10490014;28;20030;-60
2023/05/28 06:46:05;;;;;;;3.28;2.85;;;;;;;;;;10486378;28;20491;-60
2023/05/28 06:51:05;;;;;;;4.85;3.08;;;;;;;;;;10472288;28;20525;-60
2023/05/28 06:56:06;;;;;;;3.55;3.25;;;;;;;;;;10491911;28;20021;-59
2023/05/28 07:01:07;;;;;;;3.63;3.28;;;;;;;;;;10470914;28;20039;-66
2023/05/28 07:06:08;;;;;;;3.38;2.90;;;;;;;;;;10464864;28;20029;-59
2023/05/28 07:11:08;;;;;;;3.28;2.85;;;;;;;;;;10457642;28;20029;-65
2023/05/28 07:16:09;;;;;;;11.13;3.13;;;;;;;;;;10477989;28;20013;-60
2023/05/28 07:21:09;;;;;;;3.53;3.22;;;;;;;;;;10484250;28;20039;-61
2023/05/28 07:26:10;;;;;;;4.38;3.33;;;;;;;;;;10485471;28;20025;-63
2023/05/28 07:31:10;;;;;;;4.00;2.90;;;;;;;;;;10479821;28;20029;-60
2023/05/28 07:36:12;;;;;;;5.30;3.03;;;;;;;;;;10476915;28;20043;-60
2023/05/28 07:41:12;;;;;;;6.13;3.28;;;;;;;;;;10484381;28;20361;-60
2023/05/28 07:46:14;;;;;;;23.70;3.35;;;;;;;;;;10486863;28;20044;-60
2023/05/28 07:51:14;;;;;;;3.50;3.10;;;;;;;;;;10464991;28;20451;-60
2023/05/28 07:56:15;;;;;;;3.38;3.08;;;;;;;;;;10487079;28;20028;-59
2023/05/28 08:01:15;;;;;;;3.58;3.22;;;;;;;;;;10489725;28;20032;-59
2023/05/28 08:06:17;;;;;;;4.07;3.00;;;;;;;;;;10487673;28;20548;-59
2023/05/28 08:11:18;;;;;;;4.95;3.20;;;;;;;;;;10474538;28;20064;-60
2023/05/28 08:16:19;;;;;;;14.88;3.20;;;;;;;;;;10490466;28;20044;-59
2023/05/28 08:21:20;;;;;;;4.93;3.15;;;;;;;;;;10486202;28;20033;-61
2023/05/28 08:26:21;;;;;;;5.95;3.60;;;;;;;;;;10487422;28;20503;-61
2023/05/28 08:31:22;;;;;;;10.57;5.93;;;;;;;;;;10484106;28;20091;-61
2023/05/28 08:36:22;;;;;;;8.02;5.90;;;;;;;;;;10488542;28;20024;-61
2023/05/28 08:41:25;;;;;;;8.50;6.10;;;;;;;;;;10484245;28;20051;-60
2023/05/28 08:46:27;;;;;;;11.38;6.72;;;;;;;;;;10488761;28;20056;-60
2023/05/28 08:51:32;;;;;;;10.15;6.10;;;;;;;;;;10477083;28;20037;-61
2023/05/28 08:56:33;;;;;;;12.30;6.53;;;;;;;;;;10476413;28;20071;-60
2023/05/28 09:01:34;;;;;;;11.18;6.68;;;;;;;;;;10473715;28;20036;-61
2023/05/28 09:06:38;;;;;;;12.77;7.25;;;;;;;;;;10469710;28;20078;-60
2023/05/28 09:11:39;;;;;;;15.98;7.68;;;;;;;;;;10481243;28;20052;-61
2023/05/28 09:16:44;;;;;;;10.45;7.22;;;;;;;;;;10480095;28;20031;-61
2023/05/28 09:21:57;;;;;;;14.05;7.18;;;;;;;;;;10481056;28;20098;-59
2023/05/28 09:26:58;;;;;;;11.63;7.22;;;;;;;;;;10480992;28;20025;-60
2023/05/28 09:32:01;;;;;;;9.07;7.50;;;;;;;;;;10489211;28;20047;-60
2023/05/28 09:37:06;;;;;;;15.55;7.07;;;;;;;;;;10473708;28;20028;-61
2023/05/28 09:42:09;;;;;;;12.52;6.78;;;;;;;;;;10480076;28;20063;-61
2023/05/28 09:47:16;;;;;;;11.50;7.47;;;;;;;;;;10491640;28;20068;-61
2023/05/28 09:52:19;;;;;;;10.70;7.25;;;;;;;;;;10493288;28;20483;-62
2023/05/28 09:57:26;;;;;;;9.98;5.70;;;;;;;;;;10491033;28;20021;-60
2023/05/28 10:03:11;;;;;;;8.93;5.85;;;;;;;;;;10489993;28;20028;-60
2023/05/28 10:08:15;;;;;;;11.18;5.32;;;;;;;;;;10454214;28;20048;-61
2023/05/28 10:13:16;;;;;;;10.95;5.10;;;;;;;;;;10489796;28;20498;-60
2023/05/28 10:18:19;;;;;;;7.22;4.95;;;;;;;;;;10491255;28;20081;-60
2023/05/28 10:23:22;;;;;;;11.10;5.28;;;;;;;;;;10484068;28;20424;-61
2023/05/28 10:28:22;;;;;;;12.23;6.55;;;;;;;;;;10465209;28;20361;-62
2023/05/28 10:33:23;;;;;;;11.35;6.07;;;;;;;;;;10467419;28;20016;-61
2023/05/28 10:38:24;;;;;;;9.60;6.13;;;;;;;;;;10484333;28;20468;-61
2023/05/28 10:43:42;;;;;;;10.02;5.95;;;;;;;;;;10483620;28;20045;-60
2023/05/28 10:49:09;;;;;;;;;;;;;;;;;;10481388;28;20435;-61
2023/05/28 10:54:38;;;;;;;11.33;5.93;;;;;;;;;;10481476;28;20127;-59
2023/05/28 10:59:47;;;;;;;17.55;5.97;;;;;;;;;;10478436;28;20043;-61
2023/05/28 11:04:55;;;;;;;11.60;6.43;;;;;;;;;;10489543;28;20024;-60
2023/05/28 11:09:58;;;;;;;16.30;6.70;;;;;;;;;;10482278;28;20039;-61
2023/05/28 11:14:59;;;;;;;12.23;5.72;;;;;;;;;;10475544;28;20090;-60
2023/05/28 11:19:59;;;;;;;10.55;5.85;;;;;;;;;;10465044;28;20032;-60
2023/05/28 11:25:06;;;;;;;9.55;6.10;;;;;;;;;;10477370;28;20597;-62
2023/05/28 11:30:16;;;;;;;10.37;6.10;;;;;;;;;;10469919;28;20143;-62
2023/05/28 11:35:17;;;;;;;8.43;5.53;;;;;;;;;;10475759;28;20492;-62
2023/05/28 11:40:18;;;;;;;10.77;5.15;;;;;;;;;;10488840;28;20028;-62
2023/05/28 11:45:19;;;;;;;12.15;6.20;;;;;;;;;;10474399;28;20044;-60
2023/05/28 11:50:20;;;;;;;13.23;5.95;;;;;;;;;;10483711;28;20024;-60
2023/05/28 11:55:22;;;;;;;10.75;6.13;;;;;;;;;;10479498;28;20029;-61
2023/05/28 12:00:41;;;;;;;9.48;5.88;;;;;;;;;;10500126;28;20507;-61
2023/05/28 12:05:42;;;;;;;8.93;5.50;;;;;;;;;;10494070;28;20069;-59
2023/05/28 12:10:43;;;;;;;14.57;5.95;;;;;;;;;;10491169;28;20060;-60
2023/05/28 12:15:43;;;;;;;11.25;6.03;;;;;;;;;;10463035;28;20028;-61
2023/05/28 12:20:44;;;;;;;9.27;5.85;;;;;;;;;;10483085;28;20059;-61
2023/05/28 12:25:49;;;;;;;9.85;6.50;;;;;;;;;;10496968;28;20032;-61
2023/05/28 12:30:52;;;;;;;11.45;6.28;;;;;;;;;;10484333;28;20024;-60
2023/05/28 12:35:53;;;;;;;13.00;6.03;;;;;;;;;;10495061;28;20024;-60
2023/05/28 12:40:54;;;;;;;13.43;6.00;;;;;;;;;;10496948;28;20036;-61
2023/05/28 12:45:54;;;;;;;10.52;6.82;;;;;;;;;;10493444;28;20044;-59
2023/05/28 12:50:55;;;;;;;11.45;6.20;;;;;;;;;;10496473;28;20020;-62
2023/05/28 12:55:56;;;;;;;11.50;6.05;;;;;;;;;;10493236;28;20087;-62
2023/05/28 13:00:56;;;;;;;9.65;5.75;;;;;;;;;;10476639;28;20056;-62
2023/05/28 13:05:57;;;;;;;10.40;5.88;;;;;;;;;;10490905;28;20025;-61
2023/05/28 13:10:58;;;;;;;8.38;6.03;;;;;;;;;;10485187;28;20025;-62
2023/05/28 13:15:58;;;;;;;11.70;6.63;;;;;;;;;;10488913;28;20286;-62
2023/05/28 13:20:59;;;;;;;15.00;5.75;;;;;;;;;;10488259;28;20040;-61
2023/05/28 13:25:59;;;;;;;12.45;6.28;;;;;;;;;;10492713;28;20475;-61
2023/05/28 13:31:00;;;;;;;17.25;6.47;;;;;;;;;;10492249;28;20029;-60
2023/05/28 13:36:01;;;;;;;13.63;6.13;;;;;;;;;;10470261;28;20033;-60
2023/05/28 13:41:02;;;;;;;8.40;5.78;;;;;;;;;;10471831;28;20268;-63
2023/05/28 13:46:04;;;;;;;15.48;6.78;;;;;;;;;;10479417;28;20546;-60
2023/05/28 13:51:05;;;;;;;15.98;6.40;;;;;;;;;;10480748;28;20507;-63
2023/05/28 13:56:06;;;;;;;9.25;6.18;;;;;;;;;;10481709;28;20631;-61
2023/05/28 14:01:07;;;;;;;17.77;7.13;;;;;;;;;;10478548;28;20032;-61
2023/05/28 14:06:07;;;;;;;11.82;7.28;;;;;;;;;;10480128;28;20024;-64
2023/05/28 14:11:08;;;;;;;12.70;6.55;;;;;;;;;;10482673;28;20031;-62
2023/05/28 14:16:09;;;;;;;10.73;5.90;;;;;;;;;;10486538;28;20036;-63
2023/05/28 14:21:11;;;;;;;13.07;6.30;;;;;;;;;;10470816;28;20040;-65
2023/05/28 14:26:11;;;;;;;11.07;6.40;;;;;;;;;;10481168;28;20107;-64
2023/05/28 14:31:12;;;;;;;11.90;6.80;;;;;;;;;;10480177;28;20028;-63
2023/05/28 14:36:12;;;;;;;9.63;6.18;;;;;;;;;;10490298;28;20089;-62
2023/05/28 14:41:13;;;;;;;10.20;6.50;;;;;;;;;;10491338;28;20029;-60
2023/05/28 14:46:14;;;;;;;11.50;6.60;;;;;;;;;;10466638;28;20045;-61
2023/05/28 14:51:14;;;;;;;10.95;6.75;;;;;;;;;;10489406;28;20036;-61
2023/05/28 14:56:15;;;;;;;11.05;6.63;;;;;;;;;;10462884;28;20450;-62
2023/05/28 15:01:15;;;;;;;10.73;6.53;;;;;;;;;;10485385;28;20032;-60
2023/05/28 15:06:16;;;;;;;11.13;5.82;;;;;;;;;;10475993;28;20035;-60
2023/05/28 15:11:17;;;;;;;17.27;6.38;;;;;;;;;;10487260;28;20025;-60
2023/05/28 15:16:18;;;;;;;17.55;6.72;;;;;;;;;;10485501;28;20028;-62
2023/05/28 15:21:18;;;;;;;11.73;6.20;;;;;;;;;;10483612;28;20048;-60
2023/05/28 15:26:19;;;;;;;20.50;7.85;;;;;;;;;;10484086;28;20108;-60
2023/05/28 15:31:20;;;;;;;18.60;8.63;;;;;;;;;;10466790;28;20111;-61
2023/05/28 15:36:21;;;;;;;14.38;7.80;;;;;;;;;;10471786;28;20033;-61
2023/05/28 15:41:22;;;;;;;10.23;7.25;;;;;;;;;;10494005;28;20044;-61
2023/05/28 15:46:23;;;;;;;12.55;7.35;;;;;;;;;;10493044;28;20044;-60
2023/05/28 15:51:24;;;;;;;12.55;7.32;;;;;;;;;;10491319;28;21006;-61
2023/05/28 15:56:26;;;;;;;10.18;6.78;;;;;;;;;;10494079;28;20043;-60
2023/05/28 16:01:29;;;;;;;13.60;7.25;;;;;;;;;;10493433;28;20016;-60
2023/05/28 16:06:31;;;;;;;13.90;6.40;;;;;;;;;;10495962;28;20025;-61
2023/05/28 16:11:37;;;;;;;18.08;7.90;;;;;;;;;;10469387;28;20032;-61
2023/05/28 16:16:38;;;;;;;10.82;6.93;;;;;;;;;;10489491;28;20161;-58
2023/05/28 16:21:39;;;;;;;15.32;6.97;;;;;;;;;;10476664;28;20044;-58
2023/05/28 16:26:40;;;;;;;11.85;6.50;;;;;;;;;;10480268;28;20074;-58
2023/05/28 16:31:42;;;;;;;7.88;6.00;;;;;;;;;;10461727;28;20029;-58
2023/05/28 16:36:45;;;;;;;8.80;6.32;;;;;;;;;;10488470;28;20569;-59
2023/05/28 16:41:46;;;;;;;7.57;5.70;;;;;;;;;;10464585;28;20134;-62
2023/05/28 16:46:48;;;;;;;9.23;5.60;;;;;;;;;;10491777;28;20127;-58
2023/05/28 16:51:48;;;;;;;9.32;5.72;;;;;;;;;;10490441;28;20039;-59
2023/05/28 16:56:50;;;;;;;7.05;5.68;;;;;;;;;;10478575;28;20035;-60
2023/05/28 17:01:51;;;;;;;9.05;5.60;;;;;;;;;;10482669;28;20082;-59
2023/05/28 17:06:56;;;;;;;8.32;5.82;;;;;;;;;;10479594;28;20508;-59
2023/05/28 17:11:56;;;;;;;7.88;5.57;;;;;;;;;;10476212;28;20037;-58
2023/05/28 17:16:58;;;;;;;11.07;6.22;;;;;;;;;;10488676;28;20036;-60
2023/05/28 17:21:59;;;;;;;7.22;5.00;;;;;;;;;;10486744;28;20049;-59
2023/05/28 17:27:00;;;;;;;8.15;5.22;;;;;;;;;;10487061;28;20036;-58
2023/05/28 17:32:00;;;;;;;7.40;5.38;;;;;;;;;;10491581;28;20506;-59
2023/05/28 17:37:01;;;;;;;9.07;5.65;;;;;;;;;;10491618;28;20048;-59
2023/05/28 17:42:01;;;;;;;11.15;5.60;;;;;;;;;;10468553;28;20040;-58
2023/05/28 17:47:02;;;;;;;7.50;5.35;;;;;;;;;;10486410;28;20048;-59
2023/05/28 17:52:03;;;;;;;10.30;5.95;;;;;;;;;;10487387;28;20059;-59
2023/05/28 17:57:05;;;;;;;9.38;6.20;;;;;;;;;;10484998;28;20126;-59
2023/05/28 18:02:06;;;;;;;7.65;5.65;;;;;;;;;;10484865;28;20041;-58
2023/05/28 18:07:06;;;;;;;8.38;5.80;;;;;;;;;;10468343;28;20092;-59
2023/05/28 18:12:07;;;;;;;7.78;5.55;;;;;;;;;;10483807;28;20025;-58
2023/05/28 18:17:08;;;;;;;7.22;5.70;;;;;;;;;;10480727;28;20082;-58
2023/05/28 18:22:08;;;;;;;8.13;5.80;;;;;;;;;;10482427;28;20102;-63
2023/05/28 18:27:09;;;;;;;12.93;5.78;;;;;;;;;;10467512;28;20036;-58
2023/05/28 18:32:09;;;;;;;11.25;5.80;;;;;;;;;;10490494;28;20434;-59
2023/05/28 18:37:11;;;;;;;8.00;5.95;;;;;;;;;;10491588;28;20050;-58
2023/05/28 18:42:11;;;;;;;8.27;6.03;;;;;;;;;;10479037;28;20459;-62
2023/05/28 18:47:12;;;;;;;8.50;6.43;;;;;;;;;;10495358;28;20114;-58
2023/05/28 18:52:13;;;;;;;9.90;5.97;;;;;;;;;;10477981;28;20032;-59
2023/05/28 18:57:13;;;;;;;13.00;6.50;;;;;;;;;;10470299;28;20031;-58
2023/05/28 19:02:14;;;;;;;9.38;6.28;;;;;;;;;;10452941;28;20040;-59
2023/05/28 19:07:16;;;;;;;10.27;6.30;;;;;;;;;;10480641;28;20021;-58
2023/05/28 19:12:17;;;;;;;8.13;6.22;;;;;;;;;;10478256;28;20029;-60
2023/05/28 19:17:18;;;;;;;8.82;6.53;;;;;;;;;;10469283;28;20036;-60
2023/05/28 19:22:19;;;;;;;12.02;7.25;;;;;;;;;;10478620;28;20438;-60
2023/05/28 19:27:19;;;;;;;9.95;6.50;;;;;;;;;;10462776;28;20062;-60
2023/05/28 19:32:22;;;;;;;12.50;6.15;;;;;;;;;;10465689;28;20033;-61
2023/05/28 19:37:22;;;;;;;8.88;6.25;;;;;;;;;;10465830;28;20029;-59
2023/05/28 19:42:28;;;;;;;12.30;6.18;;;;;;;;;;10487533;22;20051;-55
2023/05/28 19:47:29;;;;;;;7.03;5.85;;;;;;;;;;10465457;28;20075;-59
2023/05/28 19:52:29;;;;;;;9.40;6.50;;;;;;;;;;10460650;28;20090;-59
2023/05/28 19:57:30;;;;;;;14.57;5.43;;;;;;;;;;10472843;28;20391;-59
2023/05/28 20:02:32;;;;;;;7.72;5.88;;;;;;;;;;10490647;28;20449;-60
2023/05/28 20:07:33;;;;;;;13.18;5.90;;;;;;;;;;10484057;28;20037;-59
2023/05/28 20:12:35;;;;;;;9.30;5.55;;;;;;;;;;10481851;28;20033;-61
2023/05/28 20:17:35;;;;;;;7.30;5.30;;;;;;;;;;10493070;28;20039;-61
2023/05/28 20:22:36;;;;;;;7.90;5.40;;;;;;;;;;10475632;28;20040;-59
2023/05/28 20:27:37;;;;;;;6.85;5.50;;;;;;;;;;10480740;28;20020;-61
2023/05/28 20:32:38;;;;;;;7.78;5.75;;;;;;;;;;10486038;28;20025;-59
2023/05/28 20:37:43;;;;;;;15.65;7.35;;;;;;;;;;10478271;28;20029;-56
2023/05/28 20:42:46;;;;;;;19.40;8.15;;;;;;;;;;10478675;28;20056;-54
2023/05/28 20:47:47;;;;;;;18.73;8.18;;;;;;;;;;10487713;28;20085;-52
2023/05/28 20:52:48;;;;;;;22.10;8.50;;;;;;;;;;10481683;28;20036;-53
2023/05/28 20:57:50;;;;;;;25.13;9.55;;;;;;;;;;10490046;28;20028;-52
2023/05/28 21:02:55;;;;;;;13.18;7.57;;;;;;;;;;10489613;28;20048;-52
2023/05/28 21:07:57;;;;;;;14.18;7.03;;;;;;;;;;10487660;28;20083;-58
2023/05/28 21:12:57;;;;;;;16.38;6.93;;;;;;;;;;10489499;28;20090;-52
2023/05/28 21:17:58;;;;;;;10.60;6.28;;;;;;;;;;10489483;28;20028;-55
2023/05/28 21:22:59;;;;;;;12.98;6.85;;;;;;;;;;10493658;28;20088;-53
2023/05/28 21:27:59;;;;;;;20.67;7.55;;;;;;;;;;10472916;28;20029;-57
2023/05/28 21:33:11;;;;;;;12.05;5.93;;;;;;;;;;10469206;28;20029;-56
2023/05/28 21:38:20;;;;;;;15.95;6.85;;;;;;;;;;10480090;28;20012;-59
2023/05/28 21:43:21;;;;;;;11.40;6.78;;;;;;;;;;10463676;28;20036;-57
2023/05/28 21:48:22;;;;;;;12.10;7.55;;;;;;;;;;10475254;28;20055;-58
2023/05/28 21:53:23;;;;;;;12.23;6.97;;;;;;;;;;10483593;28;20028;-57
2023/05/28 21:58:24;;;;;;;18.42;6.25;;;;;;;;;;10466728;28;20048;-57
2023/05/28 22:03:25;;;;;;;15.80;7.20;;;;;;;;;;10479357;28;20028;-57
2023/05/28 22:08:25;;;;;;;12.57;6.82;;;;;;;;;;10468359;28;20036;-57
2023/05/28 22:13:26;;;;;;;12.57;6.43;;;;;;;;;;10470315;28;20384;-58
2023/05/28 22:18:26;;;;;;;13.55;6.88;;;;;;;;;;10464562;28;20017;-57
2023/05/28 22:23:27;;;;;;;12.40;6.32;;;;;;;;;;10475617;28;20020;-55
2023/05/28 22:28:28;;;;;;;17.27;7.55;;;;;;;;;;10477012;28;20035;-56
2023/05/28 22:33:28;;;;;;;12.02;6.90;;;;;;;;;;10458642;28;20245;-54
2023/05/28 22:38:29;;;;;;;12.18;7.20;;;;;;;;;;10452343;28;20094;-58
2023/05/28 22:43:30;;;;;;;8.23;5.78;;;;;;;;;;10454190;28;20041;-56
2023/05/28 22:48:32;;;;;;;9.63;6.60;;;;;;;;;;10454710;28;20052;-58
2023/05/28 22:53:32;;;;;;;10.32;6.30;;;;;;;;;;10482469;28;20025;-58
2023/05/28 22:58:33;;;;;;;9.32;6.18;;;;;;;;;;10473563;28;20029;-57
2023/05/28 23:03:34;;;;;;;13.95;6.95;;;;;;;;;;10464264;28;20025;-57
2023/05/28 23:08:34;;;;;;;11.13;6.13;;;;;;;;;;10452827;28;20044;-58
2023/05/28 23:13:35;;;;;;;11.98;6.90;;;;;;;;;;10464794;28;20032;-58
2023/05/28 23:18:37;;;;;;;8.15;6.35;;;;;;;;;;10466553;28;20388;-58
2023/05/28 23:23:38;;;;;;;8.30;6.50;;;;;;;;;;10475137;28;20492;-58
2023/05/28 23:28:39;;;;;;;9.50;6.57;;;;;;;;;;10453580;28;20036;-58
2023/05/28 23:33:39;;;;;;;9.50;7.00;;;;;;;;;;10446385;28;20043;-57
2023/05/28 23:38:40;;;;;;;7.47;6.20;;;;;;;;;;10452796;28;20021;-57
2023/05/28 23:43:41;;;;;;;22.77;6.55;;;;;;;;;;10465599;28;20052;-55
2023/05/28 23:48:41;;;;;;;7.10;6.28;;;;;;;;;;10472964;28;20028;-54
2023/05/28 23:53:42;;;;;;;10.27;7.05;;;;;;;;;;10491948;28;20407;-55
2023/05/28 23:58:42;;;;;;;13.02;6.70;;;;;;;;;;10496682;28;20385;-54
